sensor_id;sensor_type;location;lat;lon;timestamp;pressure;altitude;pressure_sealevel;temperature;humidity
11198;BME280;5655;48.744;9.162;2023-01-31T00:00:28;96978.88;;;4.04;100.00
11198;BME280;5655;48.744;9.162;2023-01-31T00:02:53;96971.19;;;3.94;100.00
11198;BME280;5655;48.744;9.162;2023-01-31T00:05:22;96970.72;;;3.92;100.00
11198;BME280;5655;48.744;9.162;2023-01-31T00:07:47;96972.41;;;3.88;100.00
11198;BME280;5655;48.744;9.162;2023-01-31T00:10:13;96970.16;;;4.04;100.00
11198;BME280;5655;48.744;9.162;2023-01-31T00:12:38;96961.28;;;4.08;100.00
11198;BME280;5655;48.744;9.162;2023-01-31T00:15:06;96977.50;;;4.16;100.00
11198;BME280;5655;48.744;9.162;2023-01-31T00:17:31;96960.94;;;4.01;100.00
11198;BME280;5655;48.744;9.162;2023-01-31T00:19:57;96960.25;;;3.87;100.00
11198;BME280;5655;48.744;9.162;2023-01-31T00:22:22;96968.66;;;3.89;100.00
11198;BME280;5655;48.744;9.162;2023-01-31T00:24:47;96970.03;;;3.78;100.00
11198;BME280;5655;48.744;9.162;2023-01-31T00:27:13;96966.59;;;4.08;100.00
11198;BME280;5655;48.744;9.162;2023-01-31T00:29:38;96968.50;;;3.86;100.00
11198;BME280;5655;48.744;9.162;2023-01-31T00:32:03;96971.22;;;3.72;100.00
11198;BME280;5655;48.744;9.162;2023-01-31T00:34:29;96958.81;;;3.81;100.00
11198;BME280;5655;48.744;9.162;2023-01-31T00:36:54;96961.53;;;3.67;100.00
11198;BME280;5655;48.744;9.162;2023-01-31T00:39:19;96947.66;;;3.62;100.00
11198;BME280;5655;48.744;9.162;2023-01-31T00:41:44;96943.34;;;3.66;100.00
11198;BME280;5655;48.744;9.162;2023-01-31T00:44:10;96941.31;;;3.72;100.00
11198;BME280;5655;48.744;9.162;2023-01-31T00:46:35;96943.34;;;3.66;100.00
11198;BME280;5655;48.744;9.162;2023-01-31T00:49:00;96936.13;;;3.58;100.00
11198;BME280;5655;48.744;9.162;2023-01-31T00:51:26;96930.47;;;3.51;100.00
11198;BME280;5655;48.744;9.162;2023-01-31T00:53:52;96938.19;;;3.39;100.00
11198;BME280;5655;48.744;9.162;2023-01-31T00:56:22;96943.59;;;3.56;100.00
11198;BME280;5655;48.744;9.162;2023-01-31T00:58:48;96942.97;;;3.37;100.00
11198;BME280;5655;48.744;9.162;2023-01-31T01:01:17;96934.19;;;3.50;100.00
11198;BME280;5655;48.744;9.162;2023-01-31T01:03:44;96934.69;;;3.52;100.00
11198;BME280;5655;48.744;9.162;2023-01-31T01:06:10;96935.75;;;3.51;100.00
11198;BME280;5655;48.744;9.162;2023-01-31T01:08:37;96931.09;;;3.48;100.00
11198;BME280;5655;48.744;9.162;2023-01-31T01:11:11;96931.00;;;3.61;100.00
11198;BME280;5655;48.744;9.162;2023-01-31T01:13:36;96917.03;;;3.16;100.00
11198;BME280;5655;48.744;9.162;2023-01-31T01:16:06;96935.25;;;3.40;100.00
11198;BME280;5655;48.744;9.162;2023-01-31T01:18:33;96944.66;;;3.33;100.00
11198;BME280;5655;48.744;9.162;2023-01-31T01:21:28;96936.81;;;3.72;100.00
11198;BME280;5655;48.744;9.162;2023-01-31T01:24:14;96922.41;;;3.56;100.00
11198;BME280;5655;48.744;9.162;2023-01-31T01:26:43;96926.75;;;3.52;100.00
11198;BME280;5655;48.744;9.162;2023-01-31T01:29:30;96941.78;;;3.43;100.00
11198;BME280;5655;48.744;9.162;2023-01-31T01:31:55;96937.34;;;3.30;100.00
11198;BME280;5655;48.744;9.162;2023-01-31T01:34:20;96941.31;;;3.41;100.00
11198;BME280;5655;48.744;9.162;2023-01-31T01:36:46;96942.63;;;3.52;100.00
11198;BME280;5655;48.744;9.162;2023-01-31T01:39:11;96951.53;;;3.34;100.00
11198;BME280;5655;48.744;9.162;2023-01-31T01:41:43;96944.22;;;3.31;100.00
11198;BME280;5655;48.744;9.162;2023-01-31T01:44:47;96945.06;;;3.71;100.00
11198;BME280;5655;48.744;9.162;2023-01-31T01:47:17;96955.38;;;3.50;100.00
11198;BME280;5655;48.744;9.162;2023-01-31T01:49:54;96946.34;;;3.51;100.00
11198;BME280;5655;48.744;9.162;2023-01-31T01:52:22;96945.09;;;3.26;100.00
11198;BME280;5655;48.744;9.162;2023-01-31T01:54:56;96949.56;;;3.39;100.00
11198;BME280;5655;48.744;9.162;2023-01-31T01:57:29;96952.50;;;3.38;100.00
11198;BME280;5655;48.744;9.162;2023-01-31T02:02:35;96964.81;;;3.42;100.00
11198;BME280;5655;48.744;9.162;2023-01-31T02:05:01;96954.56;;;3.18;100.00
11198;BME280;5655;48.744;9.162;2023-01-31T02:07:27;96948.94;;;3.20;100.00
11198;BME280;5655;48.744;9.162;2023-01-31T02:10:07;96947.91;;;3.52;100.00
11198;BME280;5655;48.744;9.162;2023-01-31T02:12:42;96951.72;;;3.37;100.00
11198;BME280;5655;48.744;9.162;2023-01-31T02:15:09;96952.50;;;3.38;100.00
11198;BME280;5655;48.744;9.162;2023-01-31T02:17:34;96958.28;;;3.40;100.00
11198;BME280;5655;48.744;9.162;2023-01-31T02:20:03;96958.88;;;3.14;100.00
11198;BME280;5655;48.744;9.162;2023-01-31T02:31:16;96967.88;;;3.58;100.00
11198;BME280;5655;48.744;9.162;2023-01-31T02:36:50;96959.81;;;3.63;100.00
11198;BME280;5655;48.744;9.162;2023-01-31T02:45:03;96966.94;;;3.32;100.00
11198;BME280;5655;48.744;9.162;2023-01-31T02:47:55;96976.97;;;3.43;100.00
11198;BME280;5655;48.744;9.162;2023-01-31T02:53:05;96975.94;;;3.31;100.00
11198;BME280;5655;48.744;9.162;2023-01-31T02:55:37;96981.81;;;3.50;100.00
11198;BME280;5655;48.744;9.162;2023-01-31T02:58:26;96987.16;;;3.81;100.00
11198;BME280;5655;48.744;9.162;2023-01-31T03:00:56;96986.94;;;3.46;100.00
11198;BME280;5655;48.744;9.162;2023-01-31T03:03:29;96990.97;;;3.66;100.00
11198;BME280;5655;48.744;9.162;2023-01-31T03:11:49;96988.78;;;3.68;100.00
11198;BME280;5655;48.744;9.162;2023-01-31T03:17:38;96988.78;;;3.68;100.00
11198;BME280;5655;48.744;9.162;2023-01-31T03:22:59;96981.69;;;3.77;100.00
11198;BME280;5655;48.744;9.162;2023-01-31T03:25:30;96983.16;;;3.61;100.00
11198;BME280;5655;48.744;9.162;2023-01-31T03:27:58;96987.72;;;3.47;100.00
11198;BME280;5655;48.744;9.162;2023-01-31T03:30:38;96991.94;;;3.70;100.00
11198;BME280;5655;48.744;9.162;2023-01-31T03:33:25;96996.28;;;3.66;100.00
11198;BME280;5655;48.744;9.162;2023-01-31T03:36:04;96985.19;;;3.42;100.00
11198;BME280;5655;48.744;9.162;2023-01-31T03:38:33;96990.38;;;3.25;100.00
11198;BME280;5655;48.744;9.162;2023-01-31T03:43:36;97006.91;;;3.52;100.00
11198;BME280;5655;48.744;9.162;2023-01-31T03:46:10;96997.69;;;3.72;100.00
11198;BME280;5655;48.744;9.162;2023-01-31T03:48:42;96991.56;;;3.63;100.00
11198;BME280;5655;48.744;9.162;2023-01-31T03:51:17;96998.09;;;3.57;100.00
11198;BME280;5655;48.744;9.162;2023-01-31T03:53:57;97004.94;;;3.58;100.00
11198;BME280;5655;48.744;9.162;2023-01-31T03:56:45;97009.72;;;3.78;100.00
11198;BME280;5655;48.744;9.162;2023-01-31T03:59:15;97008.78;;;3.74;100.00
11198;BME280;5655;48.744;9.162;2023-01-31T04:01:44;97011.44;;;3.52;100.00
11198;BME280;5655;48.744;9.162;2023-01-31T04:04:28;97015.16;;;3.51;100.00
11198;BME280;5655;48.744;9.162;2023-01-31T04:06:59;97015.28;;;3.24;100.00
11198;BME280;5655;48.744;9.162;2023-01-31T04:09:25;97018.56;;;3.29;100.00
11198;BME280;5655;48.744;9.162;2023-01-31T04:11:53;97028.75;;;3.36;100.00
11198;BME280;5655;48.744;9.162;2023-01-31T04:14:21;97035.03;;;3.26;100.00
11198;BME280;5655;48.744;9.162;2023-01-31T04:16:46;97035.34;;;3.25;100.00
11198;BME280;5655;48.744;9.162;2023-01-31T04:19:14;97035.84;;;3.49;100.00
11198;BME280;5655;48.744;9.162;2023-01-31T04:21:39;97040.81;;;3.50;100.00
11198;BME280;5655;48.744;9.162;2023-01-31T04:24:05;97042.94;;;3.40;100.00
11198;BME280;5655;48.744;9.162;2023-01-31T04:26:30;97029.94;;;3.30;100.00
11198;BME280;5655;48.744;9.162;2023-01-31T04:28:55;97028.00;;;3.22;100.00
11198;BME280;5655;48.744;9.162;2023-01-31T04:31:23;97025.50;;;3.39;100.00
11198;BME280;5655;48.744;9.162;2023-01-31T04:33:48;97019.78;;;3.23;100.00
11198;BME280;5655;48.744;9.162;2023-01-31T04:36:14;97026.81;;;3.28;100.00
11198;BME280;5655;48.744;9.162;2023-01-31T04:38:39;97027.53;;;3.42;100.00
11198;BME280;5655;48.744;9.162;2023-01-31T04:41:04;97032.88;;;3.28;100.00
11198;BME280;5655;48.744;9.162;2023-01-31T04:43:30;97034.06;;;3.58;100.00
11198;BME280;5655;48.744;9.162;2023-01-31T04:45:58;97042.84;;;3.45;100.00
11198;BME280;5655;48.744;9.162;2023-01-31T04:48:23;97043.59;;;3.45;100.00
11198;BME280;5655;48.744;9.162;2023-01-31T04:50:49;97045.94;;;3.47;100.00
11198;BME280;5655;48.744;9.162;2023-01-31T04:53:14;97035.44;;;3.19;100.00
11198;BME280;5655;48.744;9.162;2023-01-31T04:55:39;97041.16;;;3.13;100.00
11198;BME280;5655;48.744;9.162;2023-01-31T04:58:10;97041.97;;;3.36;100.00
11198;BME280;5655;48.744;9.162;2023-01-31T05:00:36;97038.06;;;3.33;100.00
11198;BME280;5655;48.744;9.162;2023-01-31T05:03:01;97026.81;;;3.28;100.00
11198;BME280;5655;48.744;9.162;2023-01-31T05:05:26;97027.03;;;3.17;100.00
11198;BME280;5655;48.744;9.162;2023-01-31T05:07:52;97016.50;;;3.04;100.00
11198;BME280;5655;48.744;9.162;2023-01-31T05:10:17;97023.81;;;3.07;100.00
11198;BME280;5655;48.744;9.162;2023-01-31T05:12:42;97033.22;;;3.13;100.00
11198;BME280;5655;48.744;9.162;2023-01-31T05:15:08;97030.75;;;3.16;100.00
11198;BME280;5655;48.744;9.162;2023-01-31T05:17:35;97030.00;;;3.02;100.00
11198;BME280;5655;48.744;9.162;2023-01-31T05:20:01;97026.88;;;3.00;100.00
11198;BME280;5655;48.744;9.162;2023-01-31T05:22:26;97026.19;;;3.08;100.00
11198;BME280;5655;48.744;9.162;2023-01-31T05:24:52;97024.94;;;2.92;100.00
11198;BME280;5655;48.744;9.162;2023-01-31T05:27:18;97014.59;;;2.55;100.00
11198;BME280;5655;48.744;9.162;2023-01-31T05:29:44;97015.97;;;2.80;100.00
11198;BME280;5655;48.744;9.162;2023-01-31T05:32:10;97028.31;;;2.70;100.00
11198;BME280;5655;48.744;9.162;2023-01-31T05:34:35;97032.63;;;2.53;100.00
11198;BME280;5655;48.744;9.162;2023-01-31T05:37:06;97044.25;;;2.79;100.00
11198;BME280;5655;48.744;9.162;2023-01-31T05:39:31;97032.81;;;2.43;100.00
11198;BME280;5655;48.744;9.162;2023-01-31T05:41:57;97020.66;;;2.42;100.00
11198;BME280;5655;48.744;9.162;2023-01-31T05:44:22;97032.81;;;2.43;100.00
11198;BME280;5655;48.744;9.162;2023-01-31T05:46:48;97025.94;;;2.42;100.00
11198;BME280;5655;48.744;9.162;2023-01-31T05:49:16;97031.22;;;2.42;100.00
11198;BME280;5655;48.744;9.162;2023-01-31T05:51:44;97033.59;;;2.57;100.00
11198;BME280;5655;48.744;9.162;2023-01-31T05:54:18;97032.91;;;2.38;100.00
11198;BME280;5655;48.744;9.162;2023-01-31T05:56:44;97026.75;;;2.28;100.00
11198;BME280;5655;48.744;9.162;2023-01-31T05:59:12;97026.53;;;2.39;100.00
11198;BME280;5655;48.744;9.162;2023-01-31T06:01:40;97028.59;;;2.28;100.00
11198;BME280;5655;48.744;9.162;2023-01-31T06:04:05;97025.34;;;2.17;100.00
11198;BME280;5655;48.744;9.162;2023-01-31T06:06:31;97027.28;;;2.12;100.00
11198;BME280;5655;48.744;9.162;2023-01-31T06:08:56;97024.53;;;2.03;100.00
11198;BME280;5655;48.744;9.162;2023-01-31T06:11:21;97031.69;;;1.89;100.00
11198;BME280;5655;48.744;9.162;2023-01-31T06:13:49;97026.03;;;2.09;100.00
11198;BME280;5655;48.744;9.162;2023-01-31T06:16:15;97031.91;;;2.06;100.00
11198;BME280;5655;48.744;9.162;2023-01-31T06:18:40;97040.13;;;2.18;100.00
11198;BME280;5655;48.744;9.162;2023-01-31T06:21:06;97042.38;;;2.25;100.00
11198;BME280;5655;48.744;9.162;2023-01-31T06:23:31;97050.72;;;2.46;100.00
11198;BME280;5655;48.744;9.162;2023-01-31T06:25:58;97040.94;;;1.87;100.00
11198;BME280;5655;48.744;9.162;2023-01-31T06:28:24;97039.94;;;2.15;100.00
11198;BME280;5655;48.744;9.162;2023-01-31T06:30:49;97039.22;;;2.09;100.00
11198;BME280;5655;48.744;9.162;2023-01-31T06:33:15;97048.16;;;2.27;100.00
11198;BME280;5655;48.744;9.162;2023-01-31T06:35:40;97042.19;;;2.21;100.00
11198;BME280;5655;48.744;9.162;2023-01-31T06:38:06;97047.00;;;1.87;100.00
11198;BME280;5655;48.744;9.162;2023-01-31T06:40:32;97046.31;;;2.27;100.00
11198;BME280;5655;48.744;9.162;2023-01-31T06:42:58;97051.09;;;2.25;100.00
11198;BME280;5655;48.744;9.162;2023-01-31T06:45:24;97060.88;;;2.39;100.00
11198;BME280;5655;48.744;9.162;2023-01-31T06:47:49;97066.25;;;2.20;100.00
11198;BME280;5655;48.744;9.162;2023-01-31T06:50:14;97057.81;;;2.04;100.00
11198;BME280;5655;48.744;9.162;2023-01-31T06:52:40;97054.31;;;2.22;100.00
11198;BME280;5655;48.744;9.162;2023-01-31T06:55:06;97056.81;;;2.00;100.00
11198;BME280;5655;48.744;9.162;2023-01-31T06:57:31;97060.75;;;2.03;100.00
11198;BME280;5655;48.744;9.162;2023-01-31T06:59:57;97054.84;;;1.92;100.00
11198;BME280;5655;48.744;9.162;2023-01-31T07:02:22;97046.44;;;2.04;100.00
11198;BME280;5655;48.744;9.162;2023-01-31T07:04:48;97050.75;;;2.00;100.00
11198;BME280;5655;48.744;9.162;2023-01-31T07:07:13;97042.25;;;2.16;100.00
11198;BME280;5655;48.744;9.162;2023-01-31T07:09:38;97039.34;;;1.72;100.00
11198;BME280;5655;48.744;9.162;2023-01-31T07:12:04;97035.63;;;1.73;100.00
11198;BME280;5655;48.744;9.162;2023-01-31T07:14:29;97039.28;;;1.91;100.00
11198;BME280;5655;48.744;9.162;2023-01-31T07:16:54;97037.34;;;1.96;100.00
11198;BME280;5655;48.744;9.162;2023-01-31T07:19:19;97040.31;;;2.08;100.00
11198;BME280;5655;48.744;9.162;2023-01-31T07:21:45;97045.09;;;2.06;100.00
11198;BME280;5655;48.744;9.162;2023-01-31T07:24:13;97039.00;;;1.92;100.00
11198;BME280;5655;48.744;9.162;2023-01-31T07:26:38;97035.66;;;1.87;100.00
11198;BME280;5655;48.744;9.162;2023-01-31T07:29:03;97046.09;;;2.10;100.00
11198;BME280;5655;48.744;9.162;2023-01-31T07:31:31;97046.69;;;2.35;100.00
11198;BME280;5655;48.744;9.162;2023-01-31T07:33:56;97048.84;;;2.19;100.00
11198;BME280;5655;48.744;9.162;2023-01-31T07:36:22;97048.31;;;2.03;100.00
11198;BME280;5655;48.744;9.162;2023-01-31T07:38:53;97055.38;;;2.21;100.00
11198;BME280;5655;48.744;9.162;2023-01-31T07:41:19;97047.06;;;2.14;100.00
11198;BME280;5655;48.744;9.162;2023-01-31T07:43:44;97058.09;;;2.16;100.00
11198;BME280;5655;48.744;9.162;2023-01-31T07:46:10;97071.22;;;2.21;100.00
11198;BME280;5655;48.744;9.162;2023-01-31T07:48:36;97053.75;;;2.53;100.00
11198;BME280;5655;48.744;9.162;2023-01-31T07:51:02;97063.91;;;2.73;100.00
11198;BME280;5655;48.744;9.162;2023-01-31T07:53:29;97057.09;;;2.58;100.00
11198;BME280;5655;48.744;9.162;2023-01-31T07:56:11;97059.22;;;2.97;100.00
11198;BME280;5655;48.744;9.162;2023-01-31T07:58:37;97070.97;;;2.78;100.00
11198;BME280;5655;48.744;9.162;2023-01-31T08:01:03;97070.97;;;2.64;100.00
11198;BME280;5655;48.744;9.162;2023-01-31T08:03:48;97069.72;;;2.75;100.00
11198;BME280;5655;48.744;9.162;2023-01-31T08:06:13;97077.44;;;2.58;100.00
11198;BME280;5655;48.744;9.162;2023-01-31T08:08:40;97080.75;;;2.77;100.00
11198;BME280;5655;48.744;9.162;2023-01-31T08:11:06;97078.38;;;2.89;100.00
11198;BME280;5655;48.744;9.162;2023-01-31T08:13:35;97067.09;;;3.11;100.00
11198;BME280;5655;48.744;9.162;2023-01-31T08:16:01;97075.72;;;3.16;100.00
11198;BME280;5655;48.744;9.162;2023-01-31T08:18:30;97076.75;;;2.93;100.00
11198;BME280;5655;48.744;9.162;2023-01-31T08:20:56;97065.28;;;2.84;100.00
11198;BME280;5655;48.744;9.162;2023-01-31T08:23:26;97069.97;;;3.14;100.00
11198;BME280;5655;48.744;9.162;2023-01-31T08:25:52;97073.25;;;3.20;100.00
11198;BME280;5655;48.744;9.162;2023-01-31T08:28:26;97065.63;;;3.18;100.00
11198;BME280;5655;48.744;9.162;2023-01-31T08:30:51;97069.16;;;3.28;100.00
11198;BME280;5655;48.744;9.162;2023-01-31T08:33:16;97073.00;;;3.44;100.00
11198;BME280;5655;48.744;9.162;2023-01-31T08:35:42;97078.25;;;3.57;100.00
11198;BME280;5655;48.744;9.162;2023-01-31T08:38:07;97078.78;;;3.46;100.00
11198;BME280;5655;48.744;9.162;2023-01-31T08:40:32;97073.63;;;3.63;100.00
11198;BME280;5655;48.744;9.162;2023-01-31T08:43:00;97067.47;;;3.54;100.00
11198;BME280;5655;48.744;9.162;2023-01-31T08:45:27;97073.75;;;3.80;100.00
11198;BME280;5655;48.744;9.162;2023-01-31T08:47:54;97075.97;;;4.09;100.00
11198;BME280;5655;48.744;9.162;2023-01-31T08:50:24;97078.44;;;4.05;100.00
11198;BME280;5655;48.744;9.162;2023-01-31T08:52:54;97076.19;;;4.21;100.00
11198;BME280;5655;48.744;9.162;2023-01-31T08:55:21;97065.66;;;4.07;100.00
11198;BME280;5655;48.744;9.162;2023-01-31T08:57:47;97064.16;;;3.93;100.00
11198;BME280;5655;48.744;9.162;2023-01-31T09:00:13;97061.13;;;3.77;100.00
11198;BME280;5655;48.744;9.162;2023-01-31T09:02:39;97064.50;;;3.91;100.00
11198;BME280;5655;48.744;9.162;2023-01-31T09:05:05;97062.16;;;4.21;100.00
11198;BME280;5655;48.744;9.162;2023-01-31T09:07:32;97057.34;;;4.23;100.00
11198;BME280;5655;48.744;9.162;2023-01-31T09:09:58;97057.41;;;4.31;100.00
11198;BME280;5655;48.744;9.162;2023-01-31T09:12:26;97067.75;;;4.50;100.00
11198;BME280;5655;48.744;9.162;2023-01-31T09:14:51;97067.84;;;4.36;100.00
11198;BME280;5655;48.744;9.162;2023-01-31T09:17:17;97071.75;;;4.39;100.00
11198;BME280;5655;48.744;9.162;2023-01-31T09:19:42;97077.88;;;4.48;100.00
11198;BME280;5655;48.744;9.162;2023-01-31T09:22:08;97079.50;;;4.27;100.00
11198;BME280;5655;48.744;9.162;2023-01-31T09:24:33;97076.53;;;4.59;100.00
11198;BME280;5655;48.744;9.162;2023-01-31T09:26:59;97074.94;;;4.58;100.00
11198;BME280;5655;48.744;9.162;2023-01-31T09:29:24;97066.28;;;4.83;100.00
11198;BME280;5655;48.744;9.162;2023-01-31T09:31:50;97065.38;;;4.96;100.00
11198;BME280;5655;48.744;9.162;2023-01-31T09:34:18;97078.97;;;4.86;100.00
11198;BME280;5655;48.744;9.162;2023-01-31T09:36:44;97070.47;;;4.67;100.00
11198;BME280;5655;48.744;9.162;2023-01-31T09:39:10;97076.81;;;5.14;100.00
11198;BME280;5655;48.744;9.162;2023-01-31T09:41:57;97055.47;;;5.62;100.00
11198;BME280;5655;48.744;9.162;2023-01-31T09:44:28;97045.78;;;5.15;100.00
11198;BME280;5655;48.744;9.162;2023-01-31T09:47:10;97051.41;;;5.13;100.00
11198;BME280;5655;48.744;9.162;2023-01-31T09:49:45;97061.72;;;5.40;100.00
11198;BME280;5655;48.744;9.162;2023-01-31T09:52:13;97063.09;;;5.03;100.00
11198;BME280;5655;48.744;9.162;2023-01-31T09:54:41;97062.91;;;4.91;100.00
11198;BME280;5655;48.744;9.162;2023-01-31T09:59:58;97061.94;;;4.79;100.00
11198;BME280;5655;48.744;9.162;2023-01-31T10:05:17;97057.81;;;5.38;100.00
11198;BME280;5655;48.744;9.162;2023-01-31T10:10:47;97072.97;;;5.29;100.00
11198;BME280;5655;48.744;9.162;2023-01-31T10:13:32;97081.53;;;5.17;100.00
11198;BME280;5655;48.744;9.162;2023-01-31T10:18:37;97073.25;;;5.27;100.00
11198;BME280;5655;48.744;9.162;2023-01-31T10:21:11;97090.72;;;5.20;100.00
11198;BME280;5655;48.744;9.162;2023-01-31T10:23:56;97077.78;;;5.35;100.00
11198;BME280;5655;48.744;9.162;2023-01-31T10:31:50;97066.41;;;5.35;100.00
11198;BME280;5655;48.744;9.162;2023-01-31T10:34:25;97061.41;;;5.25;100.00
11198;BME280;5655;48.744;9.162;2023-01-31T10:37:26;97059.69;;;5.55;100.00
11198;BME280;5655;48.744;9.162;2023-01-31T10:42:41;97054.22;;;5.51;100.00
11198;BME280;5655;48.744;9.162;2023-01-31T10:45:20;97056.53;;;5.78;100.00
11198;BME280;5655;48.744;9.162;2023-01-31T10:47:58;97060.00;;;5.53;100.00
11198;BME280;5655;48.744;9.162;2023-01-31T10:50:48;97055.00;;;5.77;100.00
11198;BME280;5655;48.744;9.162;2023-01-31T10:53:32;97055.81;;;5.69;100.00
11198;BME280;5655;48.744;9.162;2023-01-31T10:56:04;97054.19;;;6.11;100.00
11198;BME280;5655;48.744;9.162;2023-01-31T10:58:30;97061.56;;;5.80;100.00
11198;BME280;5655;48.744;9.162;2023-01-31T11:00:56;97061.28;;;5.90;100.00
11198;BME280;5655;48.744;9.162;2023-01-31T11:03:22;97053.91;;;5.44;100.00
11198;BME280;5655;48.744;9.162;2023-01-31T11:05:50;97048.78;;;5.56;100.00
11198;BME280;5655;48.744;9.162;2023-01-31T11:10:54;97058.13;;;5.88;100.00
11198;BME280;5655;48.744;9.162;2023-01-31T11:13:21;97050.16;;;5.62;100.00
11198;BME280;5655;48.744;9.162;2023-01-31T11:15:50;97038.44;;;5.98;100.00
11198;BME280;5655;48.744;9.162;2023-01-31T11:18:29;97032.97;;;6.03;100.00
11198;BME280;5655;48.744;9.162;2023-01-31T11:20:57;97037.03;;;5.66;100.00
11198;BME280;5655;48.744;9.162;2023-01-31T11:23:29;97020.34;;;5.91;100.00
11198;BME280;5655;48.744;9.162;2023-01-31T11:25:58;97028.91;;;5.97;100.00
11198;BME280;5655;48.744;9.162;2023-01-31T11:28:35;97017.78;;;6.12;100.00
11198;BME280;5655;48.744;9.162;2023-01-31T11:31:06;97013.88;;;6.01;100.00
11198;BME280;5655;48.744;9.162;2023-01-31T11:36:17;97003.41;;;5.78;100.00
11198;BME280;5655;48.744;9.162;2023-01-31T11:38:49;97004.81;;;5.84;100.00
11198;BME280;5655;48.744;9.162;2023-01-31T11:41:36;96991.19;;;6.12;100.00
11198;BME280;5655;48.744;9.162;2023-01-31T11:44:18;96969.69;;;5.87;100.00
11198;BME280;5655;48.744;9.162;2023-01-31T11:46:54;96976.28;;;6.28;100.00
11198;BME280;5655;48.744;9.162;2023-01-31T11:49:32;96975.41;;;6.07;100.00
11198;BME280;5655;48.744;9.162;2023-01-31T11:52:02;96975.50;;;6.27;100.00
11198;BME280;5655;48.744;9.162;2023-01-31T11:54:39;96968.69;;;6.47;100.00
11198;BME280;5655;48.744;9.162;2023-01-31T11:57:14;96964.16;;;6.39;100.00
11198;BME280;5655;48.744;9.162;2023-01-31T11:59:48;96966.69;;;6.35;100.00
11198;BME280;5655;48.744;9.162;2023-01-31T12:02:38;96969.97;;;6.41;100.00
11198;BME280;5655;48.744;9.162;2023-01-31T12:05:17;96982.97;;;6.34;100.00
11198;BME280;5655;48.744;9.162;2023-01-31T12:07:49;96987.66;;;6.37;100.00
11198;BME280;5655;48.744;9.162;2023-01-31T12:12:51;96975.00;;;6.63;100.00
11198;BME280;5655;48.744;9.162;2023-01-31T12:15:16;96967.13;;;6.46;100.00
11198;BME280;5655;48.744;9.162;2023-01-31T12:17:44;96955.19;;;6.81;100.00
11198;BME280;5655;48.744;9.162;2023-01-31T12:20:27;96958.34;;;6.75;100.00
11198;BME280;5655;48.744;9.162;2023-01-31T12:37:14;96933.25;;;5.97;100.00
11198;BME280;5655;48.744;9.162;2023-01-31T12:42:43;96909.91;;;6.40;100.00
11198;BME280;5655;48.744;9.162;2023-01-31T12:45:18;96897.34;;;6.49;100.00
11198;BME280;5655;48.744;9.162;2023-01-31T12:50:28;96905.34;;;6.20;100.00
11198;BME280;5655;48.744;9.162;2023-01-31T12:58:27;96910.00;;;5.85;100.00
11198;BME280;5655;48.744;9.162;2023-01-31T13:01:18;96912.16;;;5.91;100.00
11198;BME280;5655;48.744;9.162;2023-01-31T13:04:14;96917.50;;;5.74;100.00
11198;BME280;5655;48.744;9.162;2023-01-31T13:06:47;96906.63;;;5.59;100.00
11198;BME280;5655;48.744;9.162;2023-01-31T13:09:23;96903.88;;;5.38;100.00
11198;BME280;5655;48.744;9.162;2023-01-31T13:14:29;96880.31;;;5.74;100.00
11198;BME280;5655;48.744;9.162;2023-01-31T13:16:59;96878.75;;;5.90;100.00
11198;BME280;5655;48.744;9.162;2023-01-31T13:19:32;96884.69;;;5.79;100.00
11198;BME280;5655;48.744;9.162;2023-01-31T13:22:15;96879.88;;;5.72;100.00
11198;BME280;5655;48.744;9.162;2023-01-31T13:24:44;96884.31;;;5.51;100.00
11198;BME280;5655;48.744;9.162;2023-01-31T13:27:37;96886.38;;;5.83;100.00
11198;BME280;5655;48.744;9.162;2023-01-31T13:30:15;96891.53;;;5.97;100.00
11198;BME280;5655;48.744;9.162;2023-01-31T13:32:45;96888.91;;;5.88;100.00
11198;BME280;5655;48.744;9.162;2023-01-31T13:35:20;96875.88;;;5.49;100.00
11198;BME280;5655;48.744;9.162;2023-01-31T13:37:49;96871.53;;;5.36;100.00
11198;BME280;5655;48.744;9.162;2023-01-31T13:40:19;96862.50;;;5.37;100.00
11198;BME280;5655;48.744;9.162;2023-01-31T13:42:45;96863.78;;;5.14;100.00
11198;BME280;5655;48.744;9.162;2023-01-31T13:45:22;96858.63;;;5.26;100.00
11198;BME280;5655;48.744;9.162;2023-01-31T13:47:53;96874.56;;;5.09;100.00
11198;BME280;5655;48.744;9.162;2023-01-31T13:50:51;96844.72;;;5.29;100.00
11198;BME280;5655;48.744;9.162;2023-01-31T13:53:43;96870.75;;;5.44;100.00
11198;BME280;5655;48.744;9.162;2023-01-31T13:56:19;96871.69;;;5.39;100.00
11198;BME280;5655;48.744;9.162;2023-01-31T13:58:49;96865.16;;;5.37;100.00
11198;BME280;5655;48.744;9.162;2023-01-31T14:01:27;96864.38;;;5.74;100.00
11198;BME280;5655;48.744;9.162;2023-01-31T14:09:26;96878.38;;;5.54;100.00
11198;BME280;5655;48.744;9.162;2023-01-31T14:17:04;96869.09;;;5.14;100.00
11198;BME280;5655;48.744;9.162;2023-01-31T14:30:39;96844.56;;;5.25;100.00
11198;BME280;5655;48.744;9.162;2023-01-31T14:33:13;96846.94;;;4.92;100.00
11198;BME280;5655;48.744;9.162;2023-01-31T14:46:03;96809.72;;;5.35;100.00
11198;BME280;5655;48.744;9.162;2023-01-31T14:59:26;96825.84;;;5.68;100.00
11198;BME280;5655;48.744;9.162;2023-01-31T15:01:53;96824.34;;;5.03;100.00
11198;BME280;5655;48.744;9.162;2023-01-31T15:04:21;96816.34;;;5.59;100.00
11198;BME280;5655;48.744;9.162;2023-01-31T15:06:49;96816.97;;;5.18;100.00
11198;BME280;5655;48.744;9.162;2023-01-31T15:09:25;96799.50;;;5.17;100.00
11198;BME280;5655;48.744;9.162;2023-01-31T15:11:56;96813.94;;;5.36;100.00
11198;BME280;5655;48.744;9.162;2023-01-31T15:14:25;96810.59;;;5.48;100.00
11198;BME280;5655;48.744;9.162;2023-01-31T15:17:00;96814.25;;;5.43;100.00
11198;BME280;5655;48.744;9.162;2023-01-31T15:19:32;96834.91;;;5.67;100.00
11198;BME280;5655;48.744;9.162;2023-01-31T15:22:04;96835.63;;;5.47;100.00
11198;BME280;5655;48.744;9.162;2023-01-31T15:26:59;96849.69;;;5.39;100.00
11198;BME280;5655;48.744;9.162;2023-01-31T15:29:30;96854.81;;;5.44;100.00
11198;BME280;5655;48.744;9.162;2023-01-31T15:32:18;96845.88;;;5.57;100.00
11198;BME280;5655;48.744;9.162;2023-01-31T15:35:01;96833.34;;;5.66;100.00
11198;BME280;5655;48.744;9.162;2023-01-31T15:37:32;96841.69;;;5.56;100.00
11198;BME280;5655;48.744;9.162;2023-01-31T15:40:03;96850.56;;;5.60;100.00
11198;BME280;5655;48.744;9.162;2023-01-31T15:42:31;96848.59;;;5.86;100.00